sensor_id;sensor_type;location;lat;lon;timestamp;pressure;altitude;pressure_sealevel;temperature;humidity
6851;BME280;3464;42.728;23.296;2023-04-07T00:01:14;94989.73;;;6.46;51.64
6851;BME280;3464;42.728;23.296;2023-04-07T00:03:41;94991.14;;;6.51;51.43
6851;BME280;3464;42.728;23.296;2023-04-07T00:06:08;94994.16;;;6.57;51.50
6851;BME280;3464;42.728;23.296;2023-04-07T00:08:37;94991.32;;;6.62;51.47
6851;BME280;3464;42.728;23.296;2023-04-07T00:11:04;94990.89;;;6.61;51.77
6851;BME280;3464;42.728;23.296;2023-04-07T00:13:30;94992.94;;;6.37;52.77
6851;BME280;3464;42.728;23.296;2023-04-07T00:15:57;94989.40;;;6.28;53.12
6851;BME280;3464;42.728;23.296;2023-04-07T00:18:24;94994.98;;;5.78;54.65
6851;BME280;3464;42.728;23.296;2023-04-07T00:20:52;94986.98;;;5.38;56.27
6851;BME280;3464;42.728;23.296;2023-04-07T00:23:19;94987.09;;;5.25;57.10
6851;BME280;3464;42.728;23.296;2023-04-07T00:25:46;94993.22;;;5.21;57.31
6851;BME280;3464;42.728;23.296;2023-04-07T00:28:12;94993.68;;;5.06;58.08
6851;BME280;3464;42.728;23.296;2023-04-07T00:30:39;94990.84;;;4.92;59.04
6851;BME280;3464;42.728;23.296;2023-04-07T00:33:06;94994.23;;;4.96;59.19
6851;BME280;3464;42.728;23.296;2023-04-07T00:35:32;94982.78;;;5.36;57.92
6851;BME280;3464;42.728;23.296;2023-04-07T00:37:59;94985.98;;;5.31;57.83
6851;BME280;3464;42.728;23.296;2023-04-07T00:40:26;94986.95;;;5.37;57.62
6851;BME280;3464;42.728;23.296;2023-04-07T00:42:52;94983.10;;;5.33;57.90
6851;BME280;3464;42.728;23.296;2023-04-07T00:45:19;94984.14;;;5.41;57.97
6851;BME280;3464;42.728;23.296;2023-04-07T00:47:46;94985.63;;;5.34;58.11
6851;BME280;3464;42.728;23.296;2023-04-07T00:50:12;94989.39;;;5.53;57.80
6851;BME280;3464;42.728;23.296;2023-04-07T00:52:39;94986.11;;;5.54;57.71
6851;BME280;3464;42.728;23.296;2023-04-07T00:55:07;94987.99;;;5.46;57.83
6851;BME280;3464;42.728;23.296;2023-04-07T00:57:34;94985.57;;;5.48;58.19
6851;BME280;3464;42.728;23.296;2023-04-07T01:00:01;94979.75;;;5.31;58.58
6851;BME280;3464;42.728;23.296;2023-04-07T01:02:31;94982.61;;;5.64;57.80
6851;BME280;3464;42.728;23.296;2023-04-07T01:05:08;94981.33;;;5.45;58.21
6851;BME280;3464;42.728;23.296;2023-04-07T01:07:46;94979.36;;;5.50;58.08
6851;BME280;3464;42.728;23.296;2023-04-07T01:10:11;94982.07;;;5.08;59.10
6851;BME280;3464;42.728;23.296;2023-04-07T01:13:45;94977.97;;;4.76;60.25
6851;BME280;3464;42.728;23.296;2023-04-07T01:15:21;94981.69;;;4.92;60.43
6851;BME280;3464;42.728;23.296;2023-04-07T01:17:52;94977.35;;;5.01;59.91
6851;BME280;3464;42.728;23.296;2023-04-07T01:20:18;94981.95;;;5.03;59.45
6851;BME280;3464;42.728;23.296;2023-04-07T01:22:50;94975.22;;;5.33;58.78
6851;BME280;3464;42.728;23.296;2023-04-07T01:28:09;94976.73;;;5.44;58.56
6851;BME280;3464;42.728;23.296;2023-04-07T01:30:31;94976.45;;;4.83;60.47
6851;BME280;3464;42.728;23.296;2023-04-07T01:32:57;94975.52;;;5.11;59.60
6851;BME280;3464;42.728;23.296;2023-04-07T01:35:23;94972.84;;;5.56;58.92
6851;BME280;3464;42.728;23.296;2023-04-07T01:37:51;94975.12;;;5.46;58.62
6851;BME280;3464;42.728;23.296;2023-04-07T01:40:18;94969.44;;;5.71;58.34
6851;BME280;3464;42.728;23.296;2023-04-07T01:42:44;94974.87;;;5.37;58.80
6851;BME280;3464;42.728;23.296;2023-04-07T01:45:11;94967.73;;;5.70;58.24
6851;BME280;3464;42.728;23.296;2023-04-07T01:47:38;94965.03;;;5.60;58.30
6851;BME280;3464;42.728;23.296;2023-04-07T01:50:06;94961.67;;;5.59;58.15
6851;BME280;3464;42.728;23.296;2023-04-07T01:52:34;94962.11;;;5.60;58.42
6851;BME280;3464;42.728;23.296;2023-04-07T01:55:01;94960.97;;;5.82;58.11
6851;BME280;3464;42.728;23.296;2023-04-07T01:57:27;94959.83;;;6.28;57.38
6851;BME280;3464;42.728;23.296;2023-04-07T01:59:53;94960.29;;;6.30;57.05
6851;BME280;3464;42.728;23.296;2023-04-07T02:02:20;94950.63;;;6.26;56.75
6851;BME280;3464;42.728;23.296;2023-04-07T02:07:35;94950.23;;;6.47;56.79
6851;BME280;3464;42.728;23.296;2023-04-07T02:09:59;94948.13;;;6.69;56.17
6851;BME280;3464;42.728;23.296;2023-04-07T02:12:27;94956.30;;;6.38;56.51
6851;BME280;3464;42.728;23.296;2023-04-07T02:14:56;94946.02;;;5.66;57.69
6851;BME280;3464;42.728;23.296;2023-04-07T02:17:23;94955.38;;;5.76;58.33
6851;BME280;3464;42.728;23.296;2023-04-07T02:19:49;94963.71;;;5.58;58.62
6851;BME280;3464;42.728;23.296;2023-04-07T02:22:16;94954.20;;;5.96;58.43
6851;BME280;3464;42.728;23.296;2023-04-07T02:24:43;94959.43;;;5.88;58.24
6851;BME280;3464;42.728;23.296;2023-04-07T02:27:33;94957.52;;;6.16;57.73
6851;BME280;3464;42.728;23.296;2023-04-07T02:30:05;94957.43;;;6.32;57.51
6851;BME280;3464;42.728;23.296;2023-04-07T02:32:34;94960.34;;;6.54;56.89
6851;BME280;3464;42.728;23.296;2023-04-07T02:35:01;94962.36;;;5.52;58.91
6851;BME280;3464;42.728;23.296;2023-04-07T02:37:27;94963.67;;;5.92;58.75
6851;BME280;3464;42.728;23.296;2023-04-07T02:39:54;94956.34;;;6.63;57.54
6851;BME280;3464;42.728;23.296;2023-04-07T02:42:21;94961.91;;;6.70;56.62
6851;BME280;3464;42.728;23.296;2023-04-07T02:44:48;94964.36;;;6.68;56.34
6851;BME280;3464;42.728;23.296;2023-04-07T02:47:15;94959.89;;;6.75;56.70
6851;BME280;3464;42.728;23.296;2023-04-07T02:49:42;94952.84;;;6.76;56.45
6851;BME280;3464;42.728;23.296;2023-04-07T02:52:08;94969.04;;;6.29;57.35
6851;BME280;3464;42.728;23.296;2023-04-07T02:54:35;94966.45;;;6.46;57.50
6851;BME280;3464;42.728;23.296;2023-04-07T02:57:12;94960.65;;;6.94;56.71
6851;BME280;3464;42.728;23.296;2023-04-07T02:59:42;94949.07;;;6.99;56.16
6851;BME280;3464;42.728;23.296;2023-04-07T03:02:09;94963.70;;;6.78;57.15
6851;BME280;3464;42.728;23.296;2023-04-07T03:04:36;94957.89;;;7.28;56.52
6851;BME280;3464;42.728;23.296;2023-04-07T03:07:03;94945.58;;;7.14;56.28
6851;BME280;3464;42.728;23.296;2023-04-07T03:09:30;94952.98;;;7.08;56.40
6851;BME280;3464;42.728;23.296;2023-04-07T03:11:56;94951.56;;;7.23;55.98
6851;BME280;3464;42.728;23.296;2023-04-07T03:14:23;94950.13;;;7.12;56.06
6851;BME280;3464;42.728;23.296;2023-04-07T03:16:50;94953.55;;;6.93;56.34
6851;BME280;3464;42.728;23.296;2023-04-07T03:19:17;94956.79;;;6.87;56.39
6851;BME280;3464;42.728;23.296;2023-04-07T03:21:44;94959.04;;;6.74;56.73
6851;BME280;3464;42.728;23.296;2023-04-07T03:24:10;94962.03;;;6.33;57.87
6851;BME280;3464;42.728;23.296;2023-04-07T03:26:37;94960.08;;;6.18;58.22
6851;BME280;3464;42.728;23.296;2023-04-07T03:29:03;94963.77;;;6.36;57.87
6851;BME280;3464;42.728;23.296;2023-04-07T03:31:30;94957.27;;;6.25;58.31
6851;BME280;3464;42.728;23.296;2023-04-07T03:33:57;94955.62;;;5.85;59.16
6851;BME280;3464;42.728;23.296;2023-04-07T03:36:23;94968.42;;;5.45;60.15
6851;BME280;3464;42.728;23.296;2023-04-07T03:38:51;94963.28;;;5.04;60.73
6851;BME280;3464;42.728;23.296;2023-04-07T03:41:17;94967.20;;;5.46;60.56
6851;BME280;3464;42.728;23.296;2023-04-07T03:43:44;94962.42;;;5.38;60.55
6851;BME280;3464;42.728;23.296;2023-04-07T03:46:11;94960.34;;;5.75;59.67
6851;BME280;3464;42.728;23.296;2023-04-07T03:48:43;94969.31;;;5.83;58.70
6851;BME280;3464;42.728;23.296;2023-04-07T03:51:12;94967.19;;;6.00;58.05
6851;BME280;3464;42.728;23.296;2023-04-07T03:53:38;94970.14;;;6.43;57.74
6851;BME280;3464;42.728;23.296;2023-04-07T03:56:06;94963.78;;;6.82;57.10
6851;BME280;3464;42.728;23.296;2023-04-07T03:58:34;94969.19;;;6.81;56.39
6851;BME280;3464;42.728;23.296;2023-04-07T04:01:02;94968.38;;;7.05;56.47
6851;BME280;3464;42.728;23.296;2023-04-07T04:03:30;94975.70;;;6.72;56.73
6851;BME280;3464;42.728;23.296;2023-04-07T04:06:04;94981.86;;;6.67;57.15
6851;BME280;3464;42.728;23.296;2023-04-07T04:11:55;94985.50;;;5.45;59.60
6851;BME280;3464;42.728;23.296;2023-04-07T04:23:40;94990.64;;;6.69;57.29
6851;BME280;3464;42.728;23.296;2023-04-07T04:26:14;94999.13;;;6.76;57.18
6851;BME280;3464;42.728;23.296;2023-04-07T04:28:48;94998.16;;;6.48;57.90
6851;BME280;3464;42.728;23.296;2023-04-07T04:31:20;94992.69;;;6.24;58.48
6851;BME280;3464;42.728;23.296;2023-04-07T04:33:51;94994.33;;;6.25;58.07
6851;BME280;3464;42.728;23.296;2023-04-07T04:36:18;94994.89;;;6.30;58.58
6851;BME280;3464;42.728;23.296;2023-04-07T04:38:45;95004.78;;;6.89;57.70
6851;BME280;3464;42.728;23.296;2023-04-07T04:41:11;94996.53;;;7.19;56.90
6851;BME280;3464;42.728;23.296;2023-04-07T04:43:38;95010.20;;;7.13;56.43
6851;BME280;3464;42.728;23.296;2023-04-07T04:46:08;95002.91;;;7.25;56.75
6851;BME280;3464;42.728;23.296;2023-04-07T04:48:36;95002.48;;;7.50;56.41
6851;BME280;3464;42.728;23.296;2023-04-07T04:51:10;95006.08;;;7.67;55.71
6851;BME280;3464;42.728;23.296;2023-04-07T04:53:37;95009.13;;;7.23;56.76
6851;BME280;3464;42.728;23.296;2023-04-07T04:56:08;95008.24;;;7.99;55.70
6851;BME280;3464;42.728;23.296;2023-04-07T04:58:38;95015.02;;;7.78;55.70
6851;BME280;3464;42.728;23.296;2023-04-07T05:01:06;95011.78;;;8.43;54.27
6851;BME280;3464;42.728;23.296;2023-04-07T05:03:37;95012.52;;;8.34;54.32
6851;BME280;3464;42.728;23.296;2023-04-07T05:06:07;95007.36;;;8.94;53.82
6851;BME280;3464;42.728;23.296;2023-04-07T05:08:53;95016.94;;;8.88;53.20
6851;BME280;3464;42.728;23.296;2023-04-07T05:11:36;95019.41;;;9.25;53.23
6851;BME280;3464;42.728;23.296;2023-04-07T05:14:04;95028.02;;;8.10;54.05
6851;BME280;3464;42.728;23.296;2023-04-07T05:16:34;95023.23;;;8.92;53.11
6851;BME280;3464;42.728;23.296;2023-04-07T05:19:07;95029.17;;;8.62;53.05
6851;BME280;3464;42.728;23.296;2023-04-07T05:21:36;95032.12;;;8.65;53.74
6851;BME280;3464;42.728;23.296;2023-04-07T05:24:08;95024.41;;;9.26;52.71
6851;BME280;3464;42.728;23.296;2023-04-07T05:26:36;95022.00;;;9.34;52.07
6851;BME280;3464;42.728;23.296;2023-04-07T05:29:02;95028.56;;;9.21;51.60
6851;BME280;3464;42.728;23.296;2023-04-07T05:31:31;95027.89;;;9.37;51.58
6851;BME280;3464;42.728;23.296;2023-04-07T05:34:18;95025.03;;;9.46;51.53
6851;BME280;3464;42.728;23.296;2023-04-07T05:37:06;95025.85;;;9.95;49.79
6851;BME280;3464;42.728;23.296;2023-04-07T05:39:34;95029.47;;;10.34;49.21
6851;BME280;3464;42.728;23.296;2023-04-07T05:42:01;95023.43;;;10.07;48.75
6851;BME280;3464;42.728;23.296;2023-04-07T05:44:28;95026.30;;;9.47;50.07
6851;BME280;3464;42.728;23.296;2023-04-07T05:46:56;95027.25;;;9.61;49.62
6851;BME280;3464;42.728;23.296;2023-04-07T05:49:22;95032.56;;;9.03;50.03
6851;BME280;3464;42.728;23.296;2023-04-07T05:51:51;95024.96;;;9.38;49.75
6851;BME280;3464;42.728;23.296;2023-04-07T05:54:19;95030.38;;;9.82;48.67
6851;BME280;3464;42.728;23.296;2023-04-07T05:56:49;95033.73;;;10.47;47.93
6851;BME280;3464;42.728;23.296;2023-04-07T06:01:58;95029.98;;;10.52;48.23
6851;BME280;3464;42.728;23.296;2023-04-07T06:07:17;95029.39;;;11.10;46.62
6851;BME280;3464;42.728;23.296;2023-04-07T06:09:45;95021.52;;;11.70;45.71
6851;BME280;3464;42.728;23.296;2023-04-07T06:12:12;95014.80;;;11.74;45.04
6851;BME280;3464;42.728;23.296;2023-04-07T06:14:40;95018.92;;;11.23;45.33
6851;BME280;3464;42.728;23.296;2023-04-07T06:17:08;95015.12;;;12.47;44.82
6851;BME280;3464;42.728;23.296;2023-04-07T06:19:38;95014.20;;;12.69;43.91
6851;BME280;3464;42.728;23.296;2023-04-07T06:22:05;95012.91;;;14.10;42.03
6851;BME280;3464;42.728;23.296;2023-04-07T06:24:32;95017.46;;;14.20;41.81
6851;BME280;3464;42.728;23.296;2023-04-07T06:26:59;95015.09;;;15.51;39.44
6851;BME280;3464;42.728;23.296;2023-04-07T06:29:27;95012.80;;;16.16;38.27
6851;BME280;3464;42.728;23.296;2023-04-07T06:31:54;95015.14;;;14.81;38.95
6851;BME280;3464;42.728;23.296;2023-04-07T06:34:22;95014.52;;;15.32;38.15
6851;BME280;3464;42.728;23.296;2023-04-07T06:36:59;95005.40;;;16.98;35.88
6851;BME280;3464;42.728;23.296;2023-04-07T06:39:29;95002.38;;;18.94;34.25
6851;BME280;3464;42.728;23.296;2023-04-07T06:42:05;95010.77;;;17.99;34.14
6851;BME280;3464;42.728;23.296;2023-04-07T06:44:34;95000.02;;;18.72;34.34
6851;BME280;3464;42.728;23.296;2023-04-07T06:47:04;94997.83;;;18.89;33.67
6851;BME280;3464;42.728;23.296;2023-04-07T06:49:32;95001.09;;;17.39;33.82
6851;BME280;3464;42.728;23.296;2023-04-07T06:52:01;95002.02;;;16.76;35.06
6851;BME280;3464;42.728;23.296;2023-04-07T06:54:36;95003.94;;;16.63;35.39
6851;BME280;3464;42.728;23.296;2023-04-07T06:57:11;95009.84;;;16.16;35.30
6851;BME280;3464;42.728;23.296;2023-04-07T06:59:38;95010.94;;;16.52;35.17
6851;BME280;3464;42.728;23.296;2023-04-07T07:02:05;95011.41;;;17.33;34.85
6851;BME280;3464;42.728;23.296;2023-04-07T07:04:35;95010.62;;;17.31;33.98
6851;BME280;3464;42.728;23.296;2023-04-07T07:07:32;95014.70;;;16.55;35.39
6851;BME280;3464;42.728;23.296;2023-04-07T07:10:03;95017.80;;;15.70;36.54
6851;BME280;3464;42.728;23.296;2023-04-07T07:12:32;95022.41;;;15.43;36.98
6851;BME280;3464;42.728;23.296;2023-04-07T07:20:37;95018.57;;;15.73;32.95
6851;BME280;3464;42.728;23.296;2023-04-07T07:23:05;95020.34;;;15.96;32.84
6851;BME280;3464;42.728;23.296;2023-04-07T07:25:32;95016.39;;;16.05;32.07
6851;BME280;3464;42.728;23.296;2023-04-07T07:28:02;95020.34;;;15.97;32.08
6851;BME280;3464;42.728;23.296;2023-04-07T07:30:29;95026.78;;;15.90;31.95
6851;BME280;3464;42.728;23.296;2023-04-07T07:32:56;95026.05;;;15.83;31.84
6851;BME280;3464;42.728;23.296;2023-04-07T07:35:23;95023.69;;;16.24;32.02
6851;BME280;3464;42.728;23.296;2023-04-07T07:37:50;95027.21;;;16.86;31.53
6851;BME280;3464;42.728;23.296;2023-04-07T07:40:20;95025.97;;;16.39;31.74
6851;BME280;3464;42.728;23.296;2023-04-07T07:42:46;95029.44;;;16.60;31.71
6851;BME280;3464;42.728;23.296;2023-04-07T07:45:14;95027.77;;;17.23;30.80
6851;BME280;3464;42.728;23.296;2023-04-07T07:47:41;95021.72;;;17.48;30.81
6851;BME280;3464;42.728;23.296;2023-04-07T07:50:09;95035.97;;;17.36;30.36
6851;BME280;3464;42.728;23.296;2023-04-07T07:52:36;95023.45;;;17.47;30.28
6851;BME280;3464;42.728;23.296;2023-04-07T07:55:04;95029.11;;;16.28;31.04
6851;BME280;3464;42.728;23.296;2023-04-07T07:57:30;95038.97;;;15.69;31.95
6851;BME280;3464;42.728;23.296;2023-04-07T07:59:59;95027.70;;;15.86;32.25
6851;BME280;3464;42.728;23.296;2023-04-07T08:02:33;95037.15;;;15.48;32.15
6851;BME280;3464;42.728;23.296;2023-04-07T08:05:04;95033.48;;;15.66;32.40
6851;BME280;3464;42.728;23.296;2023-04-07T08:07:34;95037.13;;;15.50;32.94
6851;BME280;3464;42.728;23.296;2023-04-07T08:10:11;95032.56;;;15.44;32.86
6851;BME280;3464;42.728;23.296;2023-04-07T08:12:40;95037.38;;;16.15;31.89
6851;BME280;3464;42.728;23.296;2023-04-07T08:28:04;95040.50;;;15.78;31.74
6851;BME280;3464;42.728;23.296;2023-04-07T08:33:55;95036.73;;;16.04;31.84
6851;BME280;3464;42.728;23.296;2023-04-07T08:36:25;95035.89;;;15.75;32.12
6851;BME280;3464;42.728;23.296;2023-04-07T08:38:57;95040.06;;;16.79;31.25
6851;BME280;3464;42.728;23.296;2023-04-07T08:41:38;95038.07;;;15.41;31.94
6851;BME280;3464;42.728;23.296;2023-04-07T08:44:07;95041.65;;;15.58;32.23
6851;BME280;3464;42.728;23.296;2023-04-07T08:46:35;95037.90;;;16.34;32.02
6851;BME280;3464;42.728;23.296;2023-04-07T08:49:12;95032.14;;;16.51;32.02
6851;BME280;3464;42.728;23.296;2023-04-07T08:51:44;95044.42;;;16.50;31.76
6851;BME280;3464;42.728;23.296;2023-04-07T08:54:21;95044.16;;;16.65;31.40
6851;BME280;3464;42.728;23.296;2023-04-07T08:57:03;95038.58;;;17.12;30.88
6851;BME280;3464;42.728;23.296;2023-04-07T08:59:46;95038.48;;;16.95;30.67
6851;BME280;3464;42.728;23.296;2023-04-07T09:02:35;95045.77;;;16.91;30.95
6851;BME280;3464;42.728;23.296;2023-04-07T09:05:06;95043.92;;;16.98;31.19
6851;BME280;3464;42.728;23.296;2023-04-07T09:10:55;95040.88;;;16.60;32.03
6851;BME280;3464;42.728;23.296;2023-04-07T09:32:58;95035.16;;;17.14;31.30
6851;BME280;3464;42.728;23.296;2023-04-07T09:35:26;95043.52;;;17.60;30.64
6851;BME280;3464;42.728;23.296;2023-04-07T09:38:00;95036.06;;;17.11;31.60
6851;BME280;3464;42.728;23.296;2023-04-07T09:40:28;95047.02;;;16.47;31.33
6851;BME280;3464;42.728;23.296;2023-04-07T09:42:56;95054.48;;;15.77;32.25
6851;BME280;3464;42.728;23.296;2023-04-07T09:45:30;95050.20;;;15.79;33.10
6851;BME280;3464;42.728;23.296;2023-04-07T09:48:03;95054.61;;;15.68;32.45
6851;BME280;3464;42.728;23.296;2023-04-07T09:50:30;95054.14;;;15.07;33.25
6851;BME280;3464;42.728;23.296;2023-04-07T09:53:03;95056.27;;;15.72;32.99
6851;BME280;3464;42.728;23.296;2023-04-07T09:55:34;95061.50;;;15.59;33.92
6851;BME280;3464;42.728;23.296;2023-04-07T10:00:54;95073.38;;;15.56;33.89
6851;BME280;3464;42.728;23.296;2023-04-07T10:06:43;95064.91;;;15.58;33.18
6851;BME280;3464;42.728;23.296;2023-04-07T10:25:15;95056.03;;;15.24;34.98
6851;BME280;3464;42.728;23.296;2023-04-07T10:27:51;95052.50;;;15.68;34.37
6851;BME280;3464;42.728;23.296;2023-04-07T10:30:31;95058.91;;;15.64;34.32
6851;BME280;3464;42.728;23.296;2023-04-07T10:32:59;95054.51;;;16.55;33.68
6851;BME280;3464;42.728;23.296;2023-04-07T10:35:26;95054.86;;;16.32;33.36
6851;BME280;3464;42.728;23.296;2023-04-07T10:38:09;95062.79;;;15.88;33.85
6851;BME280;3464;42.728;23.296;2023-04-07T10:40:36;95075.91;;;15.58;34.11
6851;BME280;3464;42.728;23.296;2023-04-07T10:43:08;95067.36;;;15.63;33.81
6851;BME280;3464;42.728;23.296;2023-04-07T10:46:10;95071.94;;;15.36;34.23
6851;BME280;3464;42.728;23.296;2023-04-07T10:51:34;95072.02;;;16.46;34.01
6851;BME280;3464;42.728;23.296;2023-04-07T10:54:14;95070.45;;;16.38;33.57
6851;BME280;3464;42.728;23.296;2023-04-07T10:59:21;95070.48;;;16.36;34.22
6851;BME280;3464;42.728;23.296;2023-04-07T11:05:21;95070.83;;;17.32;32.63
6851;BME280;3464;42.728;23.296;2023-04-07T11:07:53;95074.08;;;16.95;32.77
6851;BME280;3464;42.728;23.296;2023-04-07T11:13:20;95073.25;;;17.77;32.09
6851;BME280;3464;42.728;23.296;2023-04-07T11:19:14;95077.40;;;16.28;33.62
6851;BME280;3464;42.728;23.296;2023-04-07T11:21:41;95076.02;;;17.04;33.02
6851;BME280;3464;42.728;23.296;2023-04-07T11:27:14;95070.80;;;17.13;32.66
6851;BME280;3464;42.728;23.296;2023-04-07T11:30:12;95084.43;;;17.30;32.72
6851;BME280;3464;42.728;23.296;2023-04-07T11:39:38;95092.67;;;15.98;34.10
6851;BME280;3464;42.728;23.296;2023-04-07T11:42:04;95085.56;;;15.91;35.11
6851;BME280;3464;42.728;23.296;2023-04-07T11:44:32;95089.59;;;16.05;35.12
6851;BME280;3464;42.728;23.296;2023-04-07T11:46:59;95086.75;;;16.76;34.30
6851;BME280;3464;42.728;23.296;2023-04-07T11:49:29;95086.91;;;17.55;33.70
6851;BME280;3464;42.728;23.296;2023-04-07T11:51:57;95082.66;;;17.11;34.03
6851;BME280;3464;42.728;23.296;2023-04-07T11:54:23;95081.50;;;16.85;33.86
6851;BME280;3464;42.728;23.296;2023-04-07T11:56:50;95081.12;;;16.31;34.17
6851;BME280;3464;42.728;23.296;2023-04-07T11:59:20;95082.85;;;16.30;34.23
6851;BME280;3464;42.728;23.296;2023-04-07T12:01:46;95094.32;;;15.41;35.50
6851;BME280;3464;42.728;23.296;2023-04-07T12:04:13;95085.53;;;16.21;34.85
6851;BME280;3464;42.728;23.296;2023-04-07T12:06:40;95084.23;;;16.22;34.86
6851;BME280;3464;42.728;23.296;2023-04-07T12:09:23;95083.11;;;15.56;35.16
6851;BME280;3464;42.728;23.296;2023-04-07T12:11:35;95084.80;;;15.88;35.04
6851;BME280;3464;42.728;23.296;2023-04-07T12:14:01;95085.10;;;15.95;35.24
6851;BME280;3464;42.728;23.296;2023-04-07T12:16:28;95092.90;;;15.15;35.83
6851;BME280;3464;42.728;23.296;2023-04-07T12:18:55;95084.48;;;15.78;35.62
6851;BME280;3464;42.728;23.296;2023-04-07T12:21:21;95077.98;;;15.61;35.47
6851;BME280;3464;42.728;23.296;2023-04-07T12:23:48;95079.73;;;15.86;35.42
6851;BME280;3464;42.728;23.296;2023-04-07T12:26:14;95081.70;;;15.97;35.33
6851;BME280;3464;42.728;23.296;2023-04-07T12:28:42;95082.98;;;15.94;35.37
6851;BME280;3464;42.728;23.296;2023-04-07T12:31:10;95081.29;;;16.49;35.00
6851;BME280;3464;42.728;23.296;2023-04-07T12:33:37;95088.25;;;16.61;34.75
6851;BME280;3464;42.728;23.296;2023-04-07T12:36:05;95077.66;;;15.83;35.12
6851;BME280;3464;42.728;23.296;2023-04-07T12:38:33;95079.17;;;16.49;34.65
6851;BME280;3464;42.728;23.296;2023-04-07T12:41:02;95084.90;;;15.80;35.39
6851;BME280;3464;42.728;23.296;2023-04-07T12:43:30;95083.30;;;15.42;35.51
6851;BME280;3464;42.728;23.296;2023-04-07T12:45:57;95090.02;;;15.46;35.69
6851;BME280;3464;42.728;23.296;2023-04-07T12:48:24;95082.67;;;14.86;36.33
6851;BME280;3464;42.728;23.296;2023-04-07T12:50:51;95089.74;;;14.96;36.91
6851;BME280;3464;42.728;23.296;2023-04-07T12:53:18;95095.01;;;14.79;36.39
6851;BME280;3464;42.728;23.296;2023-04-07T12:55:46;95084.92;;;14.72;36.23
6851;BME280;3464;42.728;23.296;2023-04-07T12:58:15;95090.92;;;14.64;36.78
6851;BME280;3464;42.728;23.296;2023-04-07T13:00:44;95092.48;;;14.33;37.20
6851;BME280;3464;42.728;23.296;2023-04-07T13:03:10;95093.79;;;14.72;37.17
6851;BME280;3464;42.728;23.296;2023-04-07T13:05:38;95088.31;;;14.27;37.75
6851;BME280;3464;42.728;23.296;2023-04-07T13:08:05;95087.17;;;14.99;36.77
6851;BME280;3464;42.728;23.296;2023-04-07T13:10:32;95086.03;;;15.60;36.43
6851;BME280;3464;42.728;23.296;2023-04-07T13:12:59;95087.16;;;15.70;35.89
6851;BME280;3464;42.728;23.296;2023-04-07T13:15:26;95091.38;;;15.40;36.03
6851;BME280;3464;42.728;23.296;2023-04-07T13:17:53;95086.89;;;15.23;36.58
6851;BME280;3464;42.728;23.296;2023-04-07T13:20:20;95080.33;;;16.02;35.59
6851;BME280;3464;42.728;23.296;2023-04-07T13:22:47;95085.58;;;15.27;36.36
6851;BME280;3464;42.728;23.296;2023-04-07T13:25:14;95087.92;;;15.44;36.12
6851;BME280;3464;42.728;23.296;2023-04-07T13:27:42;95091.98;;;15.56;36.41
6851;BME280;3464;42.728;23.296;2023-04-07T13:30:12;95090.23;;;14.90;36.66
6851;BME280;3464;42.728;23.296;2023-04-07T13:32:42;95094.77;;;15.36;36.54
6851;BME280;3464;42.728;23.296;2023-04-07T13:35:15;95097.88;;;15.22;36.80
6851;BME280;3464;42.728;23.296;2023-04-07T13:37:43;95095.36;;;15.23;36.88
6851;BME280;3464;42.728;23.296;2023-04-07T13:40:18;95102.98;;;15.56;36.60
6851;BME280;3464;42.728;23.296;2023-04-07T13:42:56;95095.75;;;15.26;36.78
6851;BME280;3464;42.728;23.296;2023-04-07T13:45:24;95104.12;;;15.65;36.89
6851;BME280;3464;42.728;23.296;2023-04-07T13:47:50;95112.11;;;14.59;37.52
6851;BME280;3464;42.728;23.296;2023-04-07T13:50:17;95114.33;;;14.43;38.15
6851;BME280;3464;42.728;23.296;2023-04-07T13:52:46;95110.11;;;14.46;38.06
6851;BME280;3464;42.728;23.296;2023-04-07T13:55:13;95118.52;;;13.87;39.14
6851;BME280;3464;42.728;23.296;2023-04-07T13:57:41;95118.64;;;13.68;39.73
6851;BME280;3464;42.728;23.296;2023-04-07T14:00:21;95125.16;;;13.34;40.17
6851;BME280;3464;42.728;23.296;2023-04-07T14:02:57;95131.77;;;13.63;40.13
6851;BME280;3464;42.728;23.296;2023-04-07T14:08:32;95141.62;;;13.25;41.34
6851;BME280;3464;42.728;23.296;2023-04-07T14:10:58;95143.66;;;13.38;41.06
6851;BME280;3464;42.728;23.296;2023-04-07T14:13:34;95137.39;;;13.31;41.14
6851;BME280;3464;42.728;23.296;2023-04-07T14:16:03;95141.13;;;13.39;41.02
6851;BME280;3464;42.728;23.296;2023-04-07T14:18:33;95149.11;;;13.48;41.39
6851;BME280;3464;42.728;23.296;2023-04-07T14:21:01;95160.09;;;13.36;41.65
6851;BME280;3464;42.728;23.296;2023-04-07T14:23:37;95141.60;;;14.05;40.94
6851;BME280;3464;42.728;23.296;2023-04-07T14:26:08;95145.84;;;14.02;40.94
6851;BME280;3464;42.728;23.296;2023-04-07T14:48:25;95160.36;;;13.73;42.84
6851;BME280;3464;42.728;23.296;2023-04-07T14:50:55;95161.91;;;13.98;42.70
6851;BME280;3464;42.728;23.296;2023-04-07T14:53:23;95169.20;;;14.43;42.33
6851;BME280;3464;42.728;23.296;2023-04-07T14:55:53;95171.98;;;13.18;43.41
6851;BME280;3464;42.728;23.296;2023-04-07T14:58:28;95172.47;;;12.72;44.21
6851;BME280;3464;42.728;23.296;2023-04-07T15:01:00;95176.16;;;13.24;43.82
6851;BME280;3464;42.728;23.296;2023-04-07T15:03:32;95171.72;;;13.79;43.00
6851;BME280;3464;42.728;23.296;2023-04-07T15:06:06;95179.94;;;13.34;43.61
6851;BME280;3464;42.728;23.296;2023-04-07T15:08:37;95176.92;;;13.48;43.55
6851;BME280;3464;42.728;23.296;2023-04-07T15:11:14;95181.56;;;13.43;43.82
6851;BME280;3464;42.728;23.296;2023-04-07T15:13:42;95181.69;;;12.88;44.77
6851;BME280;3464;42.728;23.296;2023-04-07T15:16:14;95180.84;;;13.15;44.75
6851;BME280;3464;42.728;23.296;2023-04-07T15:28:56;95168.23;;;11.92;45.69
6851;BME280;3464;42.728;23.296;2023-04-07T16:04:08;95209.48;;;12.49;44.74
6851;BME280;3464;42.728;23.296;2023-04-07T16:10:13;95199.39;;;12.34;45.57
6851;BME280;3464;42.728;23.296;2023-04-07T16:12:46;95208.23;;;12.46;45.33
6851;BME280;3464;42.728;23.296;2023-04-07T16:15:25;95216.22;;;12.79;44.91
6851;BME280;3464;42.728;23.296;2023-04-07T16:41:07;95243.04;;;11.87;45.81
6851;BME280;3464;42.728;23.296;2023-04-07T16:53:14;95250.28;;;12.25;45.86
6851;BME280;3464;42.728;23.296;2023-04-07T16:55:40;95256.92;;;11.86;46.49
6851;BME280;3464;42.728;23.296;2023-04-07T16:58:07;95257.75;;;11.88;46.78
6851;BME280;3464;42.728;23.296;2023-04-07T17:00:37;95256.58;;;12.14;46.24
6851;BME280;3464;42.728;23.296;2023-04-07T17:03:05;95260.41;;;12.41;45.90
6851;BME280;3464;42.728;23.296;2023-04-07T17:05:34;95259.12;;;12.26;46.12